.
WxDataArchive / Data Records for 2007-09-02
2007-09-01 September 2007 2007-09-03

Data Records for Sunday, 02 September 2007

Time	Temp	Chill	HIndex	Humid	Dewpt	 Wind 	HiWind	WindDir	Rain 	Barom 
-----	----	-----	------	-----	-----	------	------	-------	-----	----- 
00:00	61.3	61.3	61.3	85	56.7	0	0	---	0.00	30.167 
00:05	61.0	61.0	61.0	86	56.8	0	0	---	0.00	30.168 
00:10	60.7	60.7	60.7	87	56.8	0	0	---	0.00	30.169 
00:15	60.4	60.4	60.4	88	56.8	0	0	---	0.00	30.169 
00:20	60.1	60.1	60.1	89	56.8	0	0	---	0.00	30.170 
00:25	59.9	59.9	59.9	89	56.6	0	0	---	0.00	30.172 
00:30	59.6	59.6	59.6	90	56.7	0	0	---	0.00	30.171 
00:35	59.5	59.5	59.5	90	56.6	0	0	---	0.00	30.171 
00:40	59.3	59.3	59.3	91	56.7	0	0	---	0.00	30.170 
00:45	59.0	59.0	59.0	91	56.4	0	0	---	0.00	30.170 
00:50	58.9	58.9	58.9	92	56.6	0	0	---	0.00	30.170 
00:55	58.7	58.7	58.7	92	56.4	0	0	---	0.00	30.170 
01:00	58.6	58.6	58.6	92	56.3	0	0	---	0.00	30.170 
01:05	58.4	58.4	58.4	92	56.1	0	0	---	0.00	30.170 
01:10	58.3	58.3	58.3	93	56.3	0	0	---	0.00	30.169 
01:15	58.1	58.1	58.1	93	56.1	0	0	---	0.00	30.168 
01:20	58.0	58.0	58.0	93	56.0	0	0	---	0.00	30.167 
01:25	58.0	58.0	58.0	94	56.3	0	0	---	0.00	30.167 
01:30	57.8	57.8	57.8	94	56.1	0	0	---	0.00	30.167 
01:35	57.6	57.6	57.6	94	55.9	0	0	---	0.00	30.165 
01:40	57.6	57.6	57.6	94	55.9	0	0	---	0.00	30.164 
01:45	57.5	57.5	57.5	94	55.8	0	0	---	0.00	30.163 
01:50	57.3	57.3	57.3	95	55.9	0	0	---	0.00	30.162 
01:55	57.3	57.3	57.3	95	55.9	0	0	---	0.00	30.165 
02:00	57.2	57.2	57.2	95	55.8	0	0	---	0.00	30.163 
02:05	57.2	57.2	57.2	95	55.8	0	0	---	0.00	30.160 
02:10	57.2	57.2	57.2	95	55.8	0	0	---	0.00	30.161 
02:15	57.2	57.2	57.2	95	55.8	0	0	---	0.00	30.160 
02:20	57.0	57.0	57.0	96	55.9	0	0	---	0.00	30.162 
02:25	57.0	57.0	57.0	96	55.9	0	0	---	0.00	30.161 
02:30	56.9	56.9	56.9	96	55.8	0	0	---	0.00	30.161 
02:35	56.7	56.7	56.7	96	55.6	0	0	---	0.00	30.158 
02:40	56.7	56.7	56.7	96	55.6	0	0	---	0.00	30.158 
02:45	56.6	56.6	56.6	96	55.5	0	0	---	0.00	30.159 
02:50	56.5	56.5	56.5	96	55.4	0	0	---	0.00	30.157 
02:55	56.5	56.5	56.5	96	55.4	0	0	---	0.00	30.159 
03:00	56.3	56.3	56.3	96	55.2	0	0	---	0.00	30.160 
03:05	56.2	56.2	56.2	96	55.1	0	0	---	0.00	30.161 
03:10	56.0	56.0	56.0	96	54.9	0	0	---	0.00	30.161 
03:15	55.9	55.9	55.9	96	54.8	0	0	---	0.00	30.162 
03:20	55.9	55.9	55.9	96	54.8	0	0	---	0.00	30.161 
03:25	55.7	55.7	55.7	96	54.6	0	0	---	0.00	30.161 
03:30	55.7	55.7	55.7	96	54.6	0	0	---	0.00	30.160 
03:35	55.6	55.6	55.6	96	54.5	0	0	---	0.00	30.164 
03:40	55.6	55.6	55.6	96	54.5	0	0	---	0.00	30.167 
03:45	55.4	55.4	55.4	96	54.3	0	0	---	0.00	30.167 
03:50	55.3	55.3	55.3	96	54.2	0	0	---	0.00	30.169 
03:55	55.3	55.3	55.3	96	54.2	0	0	---	0.00	30.169 
04:00	55.3	55.3	55.3	96	54.2	0	0	---	0.00	30.168 
04:05	55.1	55.1	55.1	96	54.0	0	0	---	0.00	30.169 
04:10	55.1	55.1	55.1	96	54.0	0	0	---	0.00	30.170 
04:15	55.0	55.0	55.0	97	54.2	0	0	---	0.00	30.171 
04:20	55.0	55.0	55.0	97	54.2	0	0	---	0.00	30.171 
04:25	54.8	54.8	54.8	97	54.0	0	0	---	0.00	30.172 
04:30	54.7	54.7	54.7	97	53.9	0	0	---	0.00	30.172 
04:35	54.7	54.7	54.7	97	53.9	0	0	---	0.00	30.172 
04:40	54.5	54.5	54.5	97	53.7	0	0	---	0.00	30.172 
04:45	54.5	54.5	54.5	97	53.7	0	0	---	0.00	30.170 
04:50	54.5	54.5	54.5	97	53.7	0	0	---	0.00	30.170 
04:55	54.5	54.5	54.5	97	53.7	0	0	---	0.00	30.169 
05:00	54.4	54.4	54.4	97	53.6	0	0	---	0.00	30.170 
05:05	54.4	54.4	54.4	97	53.6	0	0	---	0.00	30.173 
05:10	54.2	54.2	54.2	97	53.4	0	0	---	0.00	30.172 
05:15	54.2	54.2	54.2	97	53.4	0	0	---	0.00	30.172 
05:20	54.2	54.2	54.2	97	53.4	0	0	---	0.00	30.172 
05:25	54.2	54.2	54.2	97	53.4	0	0	---	0.00	30.171 
05:30	54.2	54.2	54.2	97	53.4	0	0	---	0.00	30.171 
05:35	54.2	54.2	54.2	97	53.4	0	0	---	0.00	30.171 
05:40	54.2	54.2	54.2	97	53.4	0	0	---	0.00	30.172 
05:45	54.1	54.1	54.1	97	53.3	0	0	---	0.00	30.173 
05:50	54.1	54.1	54.1	97	53.3	0	0	---	0.00	30.170 
05:55	54.1	54.1	54.1	97	53.3	0	0	---	0.00	30.170 
06:00	53.9	53.9	53.9	97	53.1	0	0	---	0.00	30.173 
06:05	53.9	53.9	53.9	97	53.1	0	0	---	0.00	30.177 
06:10	54.1	54.1	54.1	97	53.3	0	0	---	0.00	30.177 
06:15	54.1	54.1	54.1	97	53.3	0	0	---	0.00	30.177 
06:20	54.1	54.1	54.1	97	53.3	0	0	---	0.00	30.177 
06:25	54.2	54.2	54.2	97	53.4	0	0	---	0.00	30.178 
06:30	54.2	54.2	54.2	97	53.4	0	0	---	0.00	30.178 
06:35	54.4	54.4	54.4	97	53.6	0	0	---	0.00	30.178 
06:40	54.5	54.5	54.5	97	53.7	0	0	---	0.00	30.177 
06:45	54.7	54.7	54.7	98	54.1	0	0	---	0.00	30.177 
06:50	54.8	54.8	54.8	98	54.2	0	0	---	0.00	30.178 
06:55	55.1	55.1	55.1	98	54.5	0	0	---	0.00	30.179 
07:00	55.3	55.3	55.3	98	54.7	0	0	---	0.00	30.179 
07:05	55.7	55.7	55.7	98	55.1	0	0	---	0.00	30.183 
07:10	56.3	56.3	56.3	98	55.7	0	0	---	0.00	30.183 
07:15	57.3	57.3	57.3	98	56.7	0	1	112	0.00	30.181 
07:20	58.4	58.4	58.4	98	57.8	0	2	112	0.00	30.180 
07:25	58.6	58.6	58.6	98	58.0	1	2	112	0.00	30.179 
07:30	59.0	59.0	59.0	98	58.4	0	2	112	0.00	30.179 
07:35	59.3	59.3	59.3	96	58.2	0	1	112	0.00	30.178 
07:40	59.6	59.6	59.6	94	57.9	0	1	112	0.00	30.176 
07:45	60.1	60.1	60.1	92	57.8	0	2	112	0.00	30.176 
07:50	60.7	60.7	60.7	90	57.7	0	2	112	0.00	30.177 
07:55	61.2	61.2	61.2	87	57.3	0	2	112	0.00	30.177 
08:00	61.6	61.6	61.6	87	57.7	0	1	112	0.00	30.176 
08:05	62.0	62.0	62.0	84	57.1	0	2	112	0.00	30.176 
08:10	62.4	62.4	62.4	82	56.8	0	1	112	0.00	30.176 
08:15	62.7	62.7	62.7	82	57.1	0	1	112	0.00	30.175 
08:20	63.1	63.1	63.1	81	57.2	0	2	112	0.00	30.175 
08:25	63.5	63.5	63.5	79	56.9	0	1	112	0.00	30.173 
08:30	64.0	64.0	64.0	77	56.6	1	2	112	0.00	30.174 
08:35	64.5	64.5	64.5	77	57.1	0	1	112	0.00	30.173 
08:40	65.0	65.0	65.0	75	56.9	0	1	112	0.00	30.173 
08:45	65.5	65.5	65.5	74	57.0	0	2	112	0.00	30.172 
08:50	65.8	65.8	65.8	74	57.3	0	3	112	0.00	30.171 
08:55	66.1	66.1	66.1	73	57.2	0	3	112	0.00	30.172 
09:00	66.6	66.6	66.6	73	57.7	1	3	90	0.00	30.172 
09:05	67.3	67.3	67.3	72	58.0	0	2	90	0.00	30.173 
09:10	68.1	68.1	68.1	70	57.9	0	2	90	0.00	30.173 
09:15	69.1	69.1	69.1	69	58.5	1	3	90	0.00	30.173 
09:20	69.8	69.8	69.8	66	57.9	0	2	90	0.00	30.171 
09:25	70.8	70.8	70.8	65	58.4	0	1	90	0.00	30.170 
09:30	71.8	71.8	71.8	63	58.5	1	2	90	0.00	30.169 
09:35	72.3	72.3	72.3	62	58.5	1	3	90	0.00	30.168 
09:40	72.5	72.5	72.5	65	60.0	1	2	90	0.00	30.168 
09:45	72.8	72.8	72.8	60	58.1	1	2	90	0.00	30.167 
09:50	72.8	72.8	72.8	63	59.5	1	3	90	0.00	30.168 
09:55	73.2	73.2	73.2	63	59.8	1	2	90	0.00	30.167 
10:00	73.7	73.7	73.7	60	58.9	0	2	90	0.00	30.165 
10:05	73.9	73.9	73.9	59	58.7	1	3	68	0.00	30.166 
10:10	74.6	74.6	74.6	58	58.8	1	4	90	0.00	30.167 
10:15	75.1	75.1	77.5	58	59.3	0	1	112	0.00	30.166 
10:20	75.8	75.8	78.0	54	57.9	1	3	112	0.00	30.165 
10:25	75.6	75.6	77.8	56	58.8	1	4	112	0.00	30.166 
10:30	75.8	75.8	78.0	53	57.4	1	4	112	0.00	30.166 
10:35	76.0	76.0	78.1	55	58.6	1	3	112	0.00	30.165 
10:40	76.3	76.3	78.2	51	56.8	1	3	112	0.00	30.165 
10:45	76.7	76.7	78.5	53	58.3	1	3	112	0.00	30.165 
10:50	77.0	77.0	78.6	51	57.5	0	1	112	0.00	30.163 
10:55	77.4	77.4	78.9	52	58.4	1	5	90	0.00	30.162 
11:00	77.4	77.4	78.8	48	56.1	1	4	90	0.00	30.160 
11:05	77.6	77.6	78.8	47	55.8	1	3	112	0.00	30.160 
11:10	77.7	77.7	78.9	46	55.2	1	3	112	0.00	30.159 
11:15	77.9	77.9	79.0	46	55.4	1	3	338	0.00	30.157 
11:20	78.1	78.1	79.2	47	56.2	0	3	338	0.00	30.155 
11:25	78.5	78.5	79.4	46	56.0	1	4	112	0.00	30.152 
11:30	78.5	78.5	79.3	45	55.4	1	3	112	0.00	30.153 
11:35	78.6	78.6	79.3	44	54.8	1	3	270	0.00	30.152 
11:40	78.6	78.6	79.4	45	55.5	1	3	68	0.00	30.152 
11:45	79.2	79.2	79.9	47	57.2	1	3	68	0.00	30.151 
11:50	79.0	79.0	79.5	43	54.6	1	4	68	0.00	30.151 
11:55	79.0	79.0	79.7	46	56.4	1	3	68	0.00	30.152 
12:00	79.0	79.0	79.5	43	54.6	2	4	90	0.00	30.151 
12:05	78.8	78.8	79.8	50	58.6	1	3	68	0.00	30.153 
12:10	79.6	79.6	80.3	48	58.2	1	3	68	0.00	30.152 
12:15	79.4	79.4	80.0	46	56.8	2	5	90	0.00	30.152 
12:20	79.4	79.4	80.0	46	56.8	1	4	248	0.00	30.151 
12:25	79.4	79.4	80.0	46	56.8	2	5	90	0.00	30.150 
12:30	78.6	78.6	79.4	45	55.5	2	6	90	0.00	30.149 
12:35	78.8	78.8	79.5	45	55.6	2	4	90	0.00	30.147 
12:40	79.2	79.2	79.7	44	55.4	2	4	90	0.00	30.148 
12:45	79.2	79.2	79.5	42	54.1	1	3	90	0.00	30.146 
12:50	79.8	79.8	80.0	43	55.3	0	2	90	0.00	30.143 
12:55	80.3	80.3	80.2	41	54.4	1	3	90	0.00	30.141 
13:00	80.3	80.3	80.2	41	54.4	1	2	90	0.00	30.136 
13:05	80.1	80.1	80.2	42	54.9	1	5	90	0.00	30.139 
13:10	79.9	79.9	80.1	43	55.4	0	2	90	0.00	30.138 
13:15	80.1	80.1	80.4	45	56.8	1	3	90	0.00	30.137 
13:20	80.3	80.3	80.5	44	56.4	1	3	90	0.00	30.136 
13:25	80.7	80.7	80.5	41	54.8	1	3	90	0.00	30.134 
13:30	80.5	80.5	80.5	42	55.3	2	4	135	0.00	30.130 
13:35	80.7	80.7	80.8	44	56.7	0	2	45	0.00	30.127 
13:40	80.9	80.9	80.8	42	55.6	1	7	90	0.00	30.124 
13:45	80.5	80.5	80.5	42	55.3	1	5	90	0.00	30.124 
13:50	80.5	80.5	80.6	43	55.9	1	3	90	0.00	30.123 
13:55	80.3	80.3	80.6	45	57.0	1	5	90	0.00	30.124 
14:00	80.7	80.7	80.5	41	54.8	1	4	135	0.00	30.122 
14:05	80.9	80.9	80.6	40	54.3	0	3	135	0.00	30.122 
14:10	81.1	81.1	81.0	43	56.5	1	5	112	0.00	30.120 
14:15	80.7	80.7	80.7	43	56.1	2	5	112	0.00	30.118 
14:20	80.3	80.3	80.6	45	57.0	1	2	68	0.00	30.113 
14:25	80.7	80.7	80.6	42	55.4	1	3	90	0.00	30.111 
14:30	80.7	80.7	80.8	44	56.7	1	3	90	0.00	30.109 
14:35	80.9	80.9	80.8	42	55.6	1	2	158	0.00	30.108 
14:40	81.2	81.2	81.0	42	55.9	0	2	158	0.00	30.108 
14:45	81.6	81.6	82.1	48	60.0	0	1	180	0.00	30.107 
14:50	81.6	81.6	81.0	39	54.2	1	4	90	0.00	30.105 
14:55	81.6	81.6	81.5	43	56.9	1	3	112	0.00	30.104 
15:00	81.4	81.4	81.2	42	56.1	1	3	135	0.00	30.103 
15:05	81.4	81.4	81.0	40	54.7	1	2	135	0.00	30.100 
15:10	81.4	81.4	81.0	40	54.7	1	4	112	0.00	30.097 
15:15	81.4	81.4	81.0	40	54.7	1	4	112	0.00	30.098 
15:20	81.4	81.4	81.3	43	56.7	1	3	90	0.00	30.094 
15:25	81.4	81.4	81.3	43	56.7	1	3	90	0.00	30.092 
15:30	81.6	81.6	81.1	40	54.9	1	3	112	0.00	30.092 
15:35	81.8	81.8	81.3	40	55.1	1	3	135	0.00	30.092 
15:40	81.8	81.8	81.2	39	54.4	0	2	158	0.00	30.091 
15:45	81.8	81.8	81.6	43	57.1	1	3	112	0.00	30.087 
15:50	81.6	81.6	81.2	41	55.6	2	6	112	0.00	30.086 
15:55	81.4	81.4	81.3	43	56.7	1	3	135	0.00	30.083 
16:00	81.2	81.2	81.0	42	55.9	2	4	135	0.00	30.079 
16:05	81.2	81.2	81.0	42	55.9	1	3	90	0.00	30.080 
16:10	81.4	81.4	81.2	42	56.1	0	3	90	0.00	30.078 
16:15	81.4	81.4	81.2	42	56.1	1	3	90	0.00	30.078 
16:20	81.6	81.6	81.5	43	56.9	1	3	90	0.00	30.079 
16:25	81.1	81.1	80.8	41	55.1	1	4	90	0.00	30.078 
16:30	81.1	81.1	80.6	39	53.8	1	4	90	0.00	30.076 
16:35	80.9	80.9	80.6	40	54.3	0	2	112	0.00	30.076 
16:40	80.7	80.7	80.3	39	53.4	1	2	112	0.00	30.075 
16:45	80.5	80.5	80.3	40	53.9	0	3	112	0.00	30.074 
16:50	80.3	80.3	80.2	41	54.4	1	2	112	0.00	30.072 
16:55	80.1	80.1	80.2	42	54.9	1	2	112	0.00	30.069 
17:00	80.1	80.1	80.3	44	56.2	1	3	112	0.00	30.071 
17:05	80.1	80.1	80.2	42	54.9	1	2	112	0.00	30.071 
17:10	79.9	79.9	80.0	42	54.7	1	4	90	0.00	30.072 
17:15	79.9	79.9	80.1	43	55.4	0	3	90	0.00	30.072 
17:20	79.8	79.8	80.0	43	55.3	0	2	90	0.00	30.075 
17:25	79.6	79.6	80.1	46	57.0	0	1	90	0.00	30.075 
17:30	79.6	79.6	79.9	43	55.1	0	3	90	0.00	30.073 
17:35	79.4	79.4	79.8	44	55.6	0	2	90	0.00	30.075 
17:40	79.2	79.2	79.8	46	56.6	1	3	90	0.00	30.074 
17:45	79.2	79.2	79.9	47	57.2	0	2	90	0.00	30.073 
17:50	78.8	78.8	79.6	46	56.2	0	3	90	0.00	30.072 
17:55	78.6	78.6	79.4	45	55.5	0	3	90	0.00	30.071 
18:00	78.5	78.5	79.5	49	57.7	0	2	90	0.00	30.068 
18:05	78.3	78.3	79.4	50	58.1	0	2	90	0.00	30.065 
18:10	78.1	78.1	79.3	50	57.9	0	1	90	0.00	30.066 
18:15	77.7	77.7	79.1	52	58.6	0	0	---	0.00	30.065 
18:20	77.6	77.6	79.0	51	58.0	0	0	---	0.00	30.066 
18:25	77.2	77.2	78.8	52	58.2	0	0	---	0.00	30.064 
18:30	76.8	76.8	78.5	53	58.4	0	0	---	0.00	30.063 
18:35	76.7	76.7	78.5	54	58.8	0	0	---	0.00	30.063 
18:40	76.3	76.3	78.3	54	58.4	0	0	---	0.00	30.064 
18:45	76.0	76.0	78.1	55	58.6	0	0	---	0.00	30.064 
18:50	75.8	75.8	77.9	57	59.5	0	0	---	0.00	30.064 
18:55	75.4	75.4	77.7	58	59.6	0	0	---	0.00	30.064 
19:00	75.1	75.1	77.5	58	59.3	0	0	---	0.00	30.064 
19:05	74.6	74.6	74.6	59	59.3	0	0	---	0.00	30.060 
19:10	74.2	74.2	74.2	60	59.4	0	0	---	0.00	30.060 
19:15	73.9	73.9	73.9	61	59.6	0	0	---	0.00	30.061 
19:20	73.3	73.3	73.3	61	59.0	0	0	---	0.00	30.062 
19:25	72.8	72.8	72.8	62	59.0	0	0	---	0.00	30.062 
19:30	72.3	72.3	72.3	63	59.0	0	0	---	0.00	30.062 
19:35	71.8	71.8	71.8	64	59.0	0	0	---	0.00	30.063 
19:40	71.5	71.5	71.5	67	60.0	0	0	---	0.00	30.062 
19:45	70.8	70.8	70.8	67	59.3	0	0	---	0.00	30.064 
19:50	70.4	70.4	70.4	69	59.7	0	0	---	0.00	30.064 
19:55	69.9	69.9	69.9	70	59.7	0	0	---	0.00	30.065 
20:00	69.4	69.4	69.4	70	59.2	0	0	---	0.00	30.066 
20:05	68.9	68.9	68.9	71	59.1	0	0	---	0.00	30.065 
20:10	68.6	68.6	68.6	71	58.8	0	0	---	0.00	30.067 
20:15	68.3	68.3	68.3	72	58.9	0	0	---	0.00	30.069 
20:20	67.9	67.9	67.9	73	58.9	0	0	---	0.00	30.068 
20:25	67.6	67.6	67.6	73	58.6	0	0	---	0.00	30.068 
20:30	67.4	67.4	67.4	74	58.8	0	0	---	0.00	30.068 
20:35	67.1	67.1	67.1	75	58.9	0	0	---	0.00	30.067 
20:40	66.8	66.8	66.8	77	59.3	0	0	---	0.00	30.066 
20:45	66.4	66.4	66.4	78	59.3	0	0	---	0.00	30.066 
20:50	66.3	66.3	66.3	79	59.6	0	0	---	0.00	30.068 
20:55	66.1	66.1	66.1	80	59.7	0	0	---	0.00	30.070 
21:00	65.8	65.8	65.8	81	59.8	0	0	---	0.00	30.075 
21:05	65.5	65.5	65.5	81	59.5	0	0	---	0.00	30.070 
21:10	65.2	65.2	65.2	81	59.2	0	0	---	0.00	30.072 
21:15	65.0	65.0	65.0	82	59.4	0	0	---	0.00	30.071 
21:20	64.8	64.8	64.8	83	59.5	0	0	---	0.00	30.072 
21:25	64.5	64.5	64.5	84	59.6	0	0	---	0.00	30.071 
21:30	64.3	64.3	64.3	84	59.4	0	0	---	0.00	30.071 
21:35	64.2	64.2	64.2	85	59.6	0	0	---	0.00	30.070 
21:40	64.0	64.0	64.0	85	59.4	0	0	---	0.00	30.069 
21:45	63.9	63.9	63.9	86	59.6	0	0	---	0.00	30.071 
21:50	63.7	63.7	63.7	86	59.4	0	0	---	0.00	30.072 
21:55	63.5	63.5	63.5	87	59.6	0	0	---	0.00	30.072 
22:00	63.4	63.4	63.4	87	59.5	0	0	---	0.00	30.074 
22:05	63.2	63.2	63.2	87	59.3	0	0	---	0.00	30.071 
22:10	62.9	62.9	62.9	88	59.3	0	0	---	0.00	30.070 
22:15	62.7	62.7	62.7	88	59.1	0	0	---	0.00	30.071 
22:20	62.6	62.6	62.6	89	59.3	0	0	---	0.00	30.072 
22:25	62.4	62.4	62.4	89	59.1	0	0	---	0.00	30.071 
22:30	62.3	62.3	62.3	89	59.0	0	0	---	0.00	30.071 
22:35	62.1	62.1	62.1	90	59.1	0	0	---	0.00	30.072 
22:40	62.0	62.0	62.0	90	59.0	0	0	---	0.00	30.072 
22:45	61.8	61.8	61.8	90	58.8	0	0	---	0.00	30.072 
22:50	61.6	61.6	61.6	91	58.9	0	0	---	0.00	30.073 
22:55	61.5	61.5	61.5	91	58.8	0	0	---	0.00	30.074 
23:00	61.3	61.3	61.3	91	58.6	0	0	---	0.00	30.074 
23:05	61.3	61.3	61.3	92	59.0	0	0	---	0.00	30.073 
23:10	61.2	61.2	61.2	92	58.9	0	0	---	0.00	30.073 
23:15	61.0	61.0	61.0	92	58.7	0	0	---	0.00	30.072 
23:20	60.9	60.9	60.9	92	58.6	0	0	---	0.00	30.071 
23:25	60.7	60.7	60.7	92	58.4	0	0	---	0.00	30.071 
23:30	60.5	60.5	60.5	92	58.2	0	0	---	0.00	30.070 
23:35	60.5	60.5	60.5	92	58.2	0	0	---	0.00	30.069 
23:40	60.4	60.4	60.4	92	58.1	0	0	---	0.00	30.067 
23:45	60.4	60.4	60.4	93	58.4	0	0	---	0.00	30.065 
23:50	60.4	60.4	60.4	93	58.4	0	0	---	0.00	30.060 
23:55	60.2	60.2	60.2	93	58.2	0	0	---	0.00	30.059 

CoCoRaHS
IN-AL-39
A2 Web Hosting
Creative Commons License
GoDaddy
Look for:

loaded 2017-12-13 02:25:14 • last modified 2010-11-18 10:43:29
Privacy PolicyDisclaimer
• wx.awcolley.com is powered by PmWiki v.2002016 •
• all content (unless otherwise noted) © 2017 A W Colley